Time;durP1;ratioP1;P1;durP2;ratioP2;P2;SDS_P1;SDS_P2;PMS_P1;PMS_P2;Temp;Humidity;BMP_temperature;BMP_pressure;BME280_temperature;BME280_humidity;BME280_pressure;Samples;Min_cycle;Max_cycle;Signal;HPM_P1;HPM_P2
2023/01/24 00:00:18;;;;;;;35.22;20.05;;;;;;;-146.25;97.22;52489.84;2078884;28;39357;-74
2023/01/24 00:01:20;;;;;;;32.10;19.55;;;;;;;-146.25;97.27;52520.28;2079320;28;36027;-76
2023/01/24 00:02:22;;;;;;;33.17;20.00;;;;;;;-146.25;96.99;52493.91;2079539;28;39049;-75
2023/01/24 00:03:27;;;;;;;35.92;21.10;;;;;;;-146.25;96.97;52512.16;2080549;28;22875;-75
2023/01/24 00:04:29;;;;;;;33.65;20.33;;;;;;;-146.25;96.96;52534.47;2078657;28;40470;-75
2023/01/24 00:05:33;;;;;;;31.95;19.05;;;;;;;-146.25;96.68;52495.94;2079932;28;35435;-75
2023/01/24 00:06:35;;;;;;;30.33;20.10;;;;;;;-146.25;96.69;52487.81;2079452;28;36225;-75
2023/01/24 00:07:36;;;;;;;32.33;20.25;;;;;;;-146.25;97.37;52546.63;2079230;28;37935;-75
2023/01/24 00:08:38;;;;;;;35.92;20.58;;;;;;;-146.25;97.40;52522.28;2079437;28;38243;-74
2023/01/24 00:09:40;;;;;;;32.47;20.63;;;;;;;-146.25;97.06;52508.09;2079289;28;36938;-75
2023/01/24 00:10:42;;;;;;;33.35;19.83;;;;;;;-146.25;96.85;52536.50;2079544;28;20960;-75
2023/01/24 00:11:44;;;;;;;34.10;20.30;;;;;;;-146.25;97.04;52449.31;2079298;28;37588;-75
2023/01/24 00:12:45;;;;;;;34.47;20.73;;;;;;;-146.25;97.73;52534.47;2079458;28;36880;-74
2023/01/24 00:13:47;;;;;;;32.65;19.88;;;;;;;-146.25;97.62;52497.97;2079516;28;40435;-75
2023/01/24 00:14:49;;;;;;;32.17;20.17;;;;;;;-146.25;97.23;52526.34;2079595;28;40634;-74
2023/01/24 00:15:53;;;;;;;33.22;20.73;;;;;;;-146.25;97.34;52526.34;2080268;28;22216;-75
2023/01/24 00:16:57;;;;;;;34.30;20.73;;;;;;;-146.25;97.61;52508.09;2078835;28;39478;-76
2023/01/24 00:17:59;;;;;;;30.67;19.48;;;;;;;-146.25;96.88;52493.91;2079018;28;38967;-77
2023/01/24 00:19:00;;;;;;;33.97;20.35;;;;;;;-146.25;96.93;52540.53;2079118;28;39757;-77
2023/01/24 00:20:05;;;;;;;32.55;19.85;;;;;;;-146.25;97.61;52493.91;2078770;28;40244;-76
2023/01/24 00:21:17;;;;;;;32.50;19.50;;;;;;;-146.25;97.40;52544.59;2079363;28;20096;-75
2023/01/24 00:22:19;;;;;;;35.13;20.20;;;;;;;-146.25;97.33;52502.03;2080901;28;38221;-75
2023/01/24 00:23:20;;;;;;;32.30;19.98;;;;;;;-146.25;97.30;52520.28;2085649;28;38502;-75
2023/01/24 00:24:22;;;;;;;32.97;20.48;;;;;;;-146.25;97.45;52479.72;2079684;28;35617;-75
2023/01/24 00:25:24;;;;;;;32.60;20.77;;;;;;;-146.25;97.77;52536.50;2079462;28;39729;-77
2023/01/24 00:26:26;;;;;;;36.85;20.27;;;;;;;-146.25;97.48;52522.28;2080509;28;20050;-76
2023/01/24 00:27:31;;;;;;;33.92;20.17;;;;;;;-146.25;97.17;52528.38;2078009;28;39727;-77
2023/01/24 00:28:33;;;;;;;33.67;21.02;;;;;;;-146.25;97.46;52534.47;2079375;28;30177;-77
2023/01/24 00:29:37;;;;;;;34.80;19.30;;;;;;;-146.25;97.20;52516.22;2087008;28;40243;-77
2023/01/24 00:30:39;;;;;;;34.40;20.67;;;;;;;-146.25;97.96;52471.59;2078921;28;37105;-76
2023/01/24 00:31:41;;;;;;;35.70;20.38;;;;;;;-146.25;97.58;52493.91;2079161;28;20067;-75
2023/01/24 00:32:43;;;;;;;34.42;20.25;;;;;;;-146.25;97.89;52512.16;2079263;28;20175;-75
2023/01/24 00:33:45;;;;;;;31.10;19.58;;;;;;;-146.25;97.58;52493.91;2070867;28;38708;-75
2023/01/24 00:34:46;;;;;;;36.88;21.65;;;;;;;-146.25;98.20;52487.81;2079387;28;30352;-77
2023/01/24 00:35:51;;;;;;;32.28;19.80;;;;;;;-146.25;97.54;52524.31;2078689;28;29615;-74
2023/01/24 00:36:53;;;;;;;32.53;20.25;;;;;;;-146.25;97.89;52560.81;2078952;28;29152;-75
2023/01/24 00:37:54;;;;;;;34.65;21.10;;;;;;;-146.25;97.55;52471.59;2079744;28;20487;-75
2023/01/24 00:38:57;;;;;;;31.00;20.05;;;;;;;-146.25;97.57;52508.09;2079866;28;20061;-75
2023/01/24 00:40:00;;;;;;;34.95;20.77;;;;;;;-146.25;97.81;52506.06;2079156;28;20042;-75
2023/01/24 00:41:03;;;;;;;37.22;19.85;;;;;;;-146.25;98.20;52520.28;2070637;28;33772;-75
2023/01/24 00:42:04;;;;;;;35.20;20.02;;;;;;;-146.25;97.45;52522.28;2078639;28;34120;-77
2023/01/24 00:43:06;;;;;;;33.28;20.50;;;;;;;-146.25;97.53;52528.38;2087821;28;20037;-77
2023/01/24 00:44:11;;;;;;;29.15;19.25;;;;;;;-146.25;98.03;52506.06;2079516;28;36014;-76
2023/01/24 00:45:13;;;;;;;30.63;19.90;;;;;;;-146.25;97.43;52514.19;2079947;28;20034;-76
2023/01/24 00:46:15;;;;;;;32.88;19.80;;;;;;;-146.25;97.62;52502.03;2078928;28;34815;-74
2023/01/24 00:47:17;;;;;;;37.58;21.35;;;;;;;-146.25;97.47;52514.19;2070930;28;35499;-75
2023/01/24 00:48:18;;;;;;;31.77;20.13;;;;;;;-146.25;97.91;52495.94;2070771;28;20891;-74
2023/01/24 00:49:20;;;;;;;33.67;19.10;;;;;;;-146.25;97.33;52500.00;2079630;28;20036;-77
2023/01/24 00:50:23;;;;;;;34.58;21.00;;;;;;;-146.25;97.24;52485.81;2087477;28;20115;-76
2023/01/24 00:51:28;;;;;;;31.52;20.55;;;;;;;-146.25;97.24;52514.19;2078966;28;34649;-74
2023/01/24 00:52:29;;;;;;;31.23;20.30;;;;;;;-146.25;97.62;52506.06;2078792;28;37111;-75
2023/01/24 00:53:31;;;;;;;29.90;19.63;;;;;;;-146.25;97.31;52518.25;2079715;28;27864;-76
2023/01/24 00:54:33;;;;;;;34.08;20.67;;;;;;;-146.25;97.61;52514.19;2079535;28;39195;-75
2023/01/24 00:55:42;;;;;;;33.45;19.25;;;;;;;-146.25;97.58;52510.13;2080013;28;26632;-75
2023/01/24 00:56:44;;;;;;;28.00;18.50;;;;;;;-146.25;97.56;52524.31;2087073;28;20052;-74
2023/01/24 00:57:45;;;;;;;34.90;19.77;;;;;;;-146.25;97.27;52500.00;2079089;28;31366;-75
2023/01/24 00:58:47;;;;;;;32.10;19.45;;;;;;;-146.25;97.38;52522.28;2078582;28;38602;-75
2023/01/24 00:59:49;;;;;;;32.97;19.75;;;;;;;-146.25;96.79;52550.69;2087400;28;32604;-75
2023/01/24 01:00:54;;;;;;;31.80;19.30;;;;;;;-146.25;96.81;52516.22;2078804;28;28144;-77
2023/01/24 01:01:56;;;;;;;32.45;19.85;;;;;;;-146.25;96.96;52510.13;2079822;28;20050;-77
2023/01/24 01:03:00;;;;;;;30.65;19.25;;;;;;;-146.25;96.64;52518.25;2079240;28;20050;-74
2023/01/24 01:04:02;;;;;;;30.13;19.38;;;;;;;-146.25;96.61;52485.81;2079121;28;23569;-74
2023/01/24 01:05:06;;;;;;;31.13;19.45;;;;;;;-146.25;97.02;52477.69;2087244;28;21050;-75
2023/01/24 01:06:14;;;;;;;29.50;17.92;;;;;;;-146.25;97.02;52502.03;2070305;28;34304;-76
2023/01/24 01:07:17;;;;;;;33.45;19.85;;;;;;;-146.25;96.72;52534.47;2072108;28;20121;-77
2023/01/24 01:08:18;;;;;;;31.50;19.23;;;;;;;-146.25;96.72;52522.28;2079561;28;26907;-76
2023/01/24 01:09:22;;;;;;;33.22;18.63;;;;;;;-146.25;97.15;52487.81;2087760;28;34475;-76
2023/01/24 01:10:24;;;;;;;29.85;18.35;;;;;;;-146.25;96.66;52510.13;2070656;28;33050;-76
2023/01/24 01:11:26;;;;;;;29.30;18.25;;;;;;;-146.25;97.22;52516.22;2070525;28;37145;-76
2023/01/24 01:12:27;;;;;;;29.55;18.35;;;;;;;-146.25;97.12;52497.97;2087014;28;21001;-76
2023/01/24 01:13:30;;;;;;;31.20;18.58;;;;;;;-146.25;96.63;52471.59;2079683;28;34473;-76
2023/01/24 01:14:32;;;;;;;29.13;18.58;;;;;;;-146.25;96.66;52479.72;2080166;28;20041;-76
2023/01/24 01:15:34;;;;;;;34.45;19.08;;;;;;;-146.25;96.81;52489.84;2079559;28;33071;-76
2023/01/24 01:16:39;;;;;;;28.98;16.70;;;;;;;-146.25;96.56;52489.84;2079356;28;20030;-77
2023/01/24 01:17:40;;;;;;;27.08;18.13;;;;;;;-146.25;96.56;52514.19;2078566;28;39138;-77
2023/01/24 01:18:42;;;;;;;30.70;18.80;;;;;;;-146.25;96.16;52542.56;2079694;28;25274;-76
2023/01/24 01:19:50;;;;;;;29.50;18.73;;;;;;;-146.25;96.03;52489.84;2079019;28;20902;-76
2023/01/24 01:20:52;;;;;;;30.40;18.25;;;;;;;-146.25;96.39;52506.06;2070988;28;40557;-76
2023/01/24 01:21:54;;;;;;;29.88;18.05;;;;;;;-146.25;96.15;52512.16;2071673;28;20926;-76
2023/01/24 01:22:58;;;;;;;29.30;17.33;;;;;;;-146.25;96.48;52495.94;2071225;28;21616;-76
2023/01/24 01:24:01;;;;;;;28.52;18.55;;;;;;;-146.25;95.79;52522.28;2078172;28;32554;-76
2023/01/24 01:25:03;;;;;;;29.17;18.20;;;;;;;-146.25;95.88;52546.63;2071017;28;20097;-77
2023/01/24 01:26:09;;;;;;;28.05;17.75;;;;;;;-146.25;95.96;52504.03;2070736;28;31484;-76
2023/01/24 01:27:11;;;;;;;30.30;18.20;;;;;;;-146.25;96.24;52526.34;2071281;28;30658;-77
2023/01/24 01:28:16;;;;;;;29.63;18.20;;;;;;;-146.25;96.25;52506.06;2062479;28;30607;-77
2023/01/24 01:29:17;;;;;;;27.83;17.17;;;;;;;-146.25;95.93;52522.28;2054265;28;37383;-77
2023/01/24 01:30:19;;;;;;;29.23;17.73;;;;;;;-146.25;96.35;52520.28;2071060;28;32099;-77
2023/01/24 01:31:21;;;;;;;27.75;18.10;;;;;;;-146.25;95.82;52536.50;2087407;28;20091;-75
2023/01/24 01:32:23;;;;;;;26.48;17.17;;;;;;;-146.25;96.05;52491.88;2086842;28;32263;-74
2023/01/24 01:33:25;;;;;;;32.35;19.48;;;;;;;-146.25;96.63;52481.75;2079609;28;33433;-74
2023/01/24 01:34:27;;;;;;;26.25;17.40;;;;;;;-146.25;95.95;52500.00;2080054;28;20042;-74
2023/01/24 01:35:28;;;;;;;29.02;17.15;;;;;;;-146.25;95.70;52546.63;2070530;28;38417;-76
2023/01/24 01:36:30;;;;;;;29.20;18.00;;;;;;;-146.25;95.97;52500.00;2070428;28;32737;-74
2023/01/24 01:37:32;;;;;;;26.85;17.02;;;;;;;-146.25;95.72;52512.16;2078935;28;30543;-77
2023/01/24 01:38:33;;;;;;;26.33;16.80;;;;;;;-146.25;95.77;52487.81;2079083;28;34655;-77
2023/01/24 01:39:35;;;;;;;29.30;18.63;;;;;;;-146.25;96.34;52497.97;2078777;28;33495;-76
2023/01/24 01:40:38;;;;;;;29.83;17.48;;;;;;;-146.25;95.64;52526.34;2079160;28;20185;-77
2023/01/24 01:41:39;;;;;;;27.50;18.15;;;;;;;-146.25;95.54;52500.00;2078546;28;38320;-77
2023/01/24 01:42:59;;;;;;;27.92;18.45;;;;;;;-146.25;95.76;52514.19;2078338;28;33786;-76
2023/01/24 01:44:37;;;;;;;23.98;13.40;;;;;;;-146.25;95.41;52495.94;2069539;28;39547;-74
2023/01/24 01:45:47;;;;;;;26.50;16.65;;;;;;;-146.25;94.76;52542.56;2076722;28;20045;-77
2023/01/24 01:46:53;;;;;;;25.85;15.45;;;;;;;-146.25;94.79;52497.97;2079017;28;20037;-76
2023/01/24 01:47:54;;;;;;;26.35;17.33;;;;;;;-146.25;94.55;52514.19;2080342;28;34048;-76
2023/01/24 01:49:05;;;;;;;24.30;16.35;;;;;;;-146.25;94.30;52489.84;2080036;28;30754;-76
2023/01/24 01:50:19;;;;;;;24.80;16.52;;;;;;;-146.25;94.59;52485.81;2073216;28;35942;-76
2023/01/24 01:51:42;;;;;;;25.20;15.82;;;;;;;-146.25;94.05;52550.69;2075227;28;20050;-76
2023/01/24 01:52:44;;;;;;;23.30;14.43;;;;;;;-146.25;93.32;52500.00;2082426;28;38095;-77
2023/01/24 01:54:11;;;;;;;21.20;13.75;;;;;;;-146.25;92.10;52508.09;2080378;28;28309;-76
2023/01/24 01:55:17;;;;;;;22.02;14.90;;;;;;;-146.25;91.92;52514.19;2075304;28;33219;-74
2023/01/24 01:56:34;;;;;;;22.00;14.88;;;;;;;-146.25;92.03;52489.84;2081438;28;36800;-75
2023/01/24 01:57:36;;;;;;;19.92;13.63;;;;;;;-146.25;92.13;52540.53;2080414;28;20042;-76
2023/01/24 01:58:40;;;;;;;23.48;13.43;;;;;;;-146.25;91.64;52550.69;2080616;28;20030;-76
2023/01/24 01:59:49;;;;;;;19.05;13.27;;;;;;;-146.25;91.51;52504.03;2079759;28;34309;-74
2023/01/24 02:00:51;;;;;;;19.17;12.32;;;;;;;-146.25;91.12;52493.91;2073915;28;20045;-76
2023/01/24 02:01:57;;;;;;;19.00;12.65;;;;;;;-146.25;91.02;52506.06;2073128;28;20077;-74
2023/01/24 02:04:46;;;;;;;19.33;12.85;;;;;;;-146.25;89.63;52536.50;2080573;28;20112;-75
2023/01/24 02:05:50;;;;;;;18.00;11.65;;;;;;;-146.25;89.38;52502.03;2071625;28;27274;-75
2023/01/24 02:07:21;;;;;;;14.38;10.40;;;;;;;-146.25;88.67;52526.34;2072585;28;20047;-74
2023/01/24 02:08:24;;;;;;;15.18;10.18;;;;;;;-146.25;88.07;52550.69;2071739;28;38192;-76
2023/01/24 02:09:34;;;;;;;14.45;9.85;;;;;;;-146.25;87.51;52514.19;2075399;28;36922;-77
2023/01/24 02:12:04;;;;;;;15.60;9.50;;;;;;;-146.25;87.13;52487.81;2068934;28;38765;-75
2023/01/24 02:13:05;;;;;;;13.60;9.45;;;;;;;-146.25;86.84;52510.13;2076049;28;21739;-76
2023/01/24 02:16:54;;;;;;;12.48;8.93;;;;;;;-146.25;87.65;52473.63;2084178;28;21000;-76
2023/01/24 02:17:56;;;;;;;12.57;9.40;;;;;;;-146.25;87.55;52502.03;2078734;28;34468;-76
2023/01/24 02:19:00;;;;;;;14.40;9.32;;;;;;;-146.25;87.14;52485.81;2079879;28;34554;-74
2023/01/24 02:20:32;;;;;;;13.70;9.13;;;;;;;-146.25;87.21;52510.13;2079499;28;29501;-76
2023/01/24 02:21:34;;;;;;;12.18;9.07;;;;;;;-146.25;87.08;52528.38;2080725;28;20081;-74
2023/01/24 02:22:43;;;;;;;13.43;9.32;;;;;;;-146.25;86.71;52489.84;2079933;28;32709;-76
2023/01/24 02:24:25;;;;;;;12.32;8.55;;;;;;;-146.25;86.65;52538.53;2081019;28;20103;-74
2023/01/24 02:26:04;;;;;;;13.30;9.20;;;;;;;-146.25;86.65;52510.13;2069273;28;32521;-74
2023/01/24 02:27:06;;;;;;;15.55;10.13;;;;;;;-146.25;86.82;52516.22;2086158;28;20150;-74
2023/01/24 02:28:14;;;;;;;12.23;8.52;;;;;;;-146.25;86.89;52520.28;2079934;28;20839;-74
2023/01/24 02:29:16;;;;;;;11.77;8.10;;;;;;;-146.25;86.83;52491.88;2081619;28;21057;-75
2023/01/24 02:30:18;;;;;;;12.77;8.10;;;;;;;-146.25;86.13;52506.06;2086946;28;26977;-76
2023/01/24 02:31:21;;;;;;;11.93;8.25;;;;;;;-146.25;85.17;52512.16;2080168;28;20190;-75
2023/01/24 02:32:25;;;;;;;12.40;8.30;;;;;;;-146.25;84.79;52534.47;2072197;28;20168;-75
2023/01/24 02:33:30;;;;;;;12.13;7.93;;;;;;;-146.25;85.19;52548.66;2079303;28;20065;-75
2023/01/24 02:34:31;;;;;;;12.77;8.18;;;;;;;-146.25;84.48;52487.81;2063858;28;20839;-75
2023/01/24 02:35:33;;;;;;;11.25;7.97;;;;;;;-146.25;84.63;52520.28;2064375;28;26990;-76
2023/01/24 02:36:39;;;;;;;11.95;8.50;;;;;;;-146.25;84.52;52493.91;2079640;28;28321;-76
2023/01/24 02:37:41;;;;;;;12.68;8.85;;;;;;;-146.25;84.40;52483.78;2072214;28;20046;-76
2023/01/24 02:38:52;;;;;;;10.32;7.85;;;;;;;-146.25;84.91;52500.00;2072192;28;20089;-76
2023/01/24 02:40:09;;;;;;;11.10;7.75;;;;;;;-146.25;84.83;52504.03;2072291;28;20053;-76
2023/01/24 02:41:11;;;;;;;12.68;8.70;;;;;;;-146.25;84.65;52463.50;2071843;28;26695;-74
2023/01/24 02:42:22;;;;;;;13.38;9.18;;;;;;;-146.25;84.76;52530.41;2071532;28;33160;-74
2023/01/24 02:43:28;;;;;;;11.95;9.05;;;;;;;-146.25;85.34;52512.16;2072122;28;20100;-76
2023/01/24 02:44:45;;;;;;;14.52;9.85;;;;;;;-146.25;85.62;52502.03;2065891;28;20043;-74
2023/01/24 02:45:47;;;;;;;14.98;10.90;;;;;;;-146.25;86.08;52518.25;2058609;28;20051;-77
2023/01/24 02:46:48;;;;;;;17.25;10.68;;;;;;;-146.25;86.23;52508.09;2065219;28;20058;-74
2023/01/24 02:47:53;;;;;;;14.18;10.15;;;;;;;-146.25;86.11;52463.50;2079712;28;35289;-77
2023/01/24 02:48:56;;;;;;;13.35;10.40;;;;;;;-146.25;86.40;52510.13;2071465;28;31911;-75
2023/01/24 02:50:02;;;;;;;15.48;10.52;;;;;;;-146.25;85.79;52514.19;2072620;28;20053;-74
2023/01/24 02:53:44;;;;;;;15.45;10.80;;;;;;;-146.25;86.36;52510.13;2072316;28;20039;-77
2023/01/24 02:54:46;;;;;;;15.63;10.50;;;;;;;-146.25;86.42;52528.38;2072329;28;28810;-76
2023/01/24 02:58:31;;;;;;;15.55;11.00;;;;;;;-146.25;86.33;52475.66;2073112;28;20855;-76
2023/01/24 02:59:35;;;;;;;14.35;10.40;;;;;;;-146.25;86.39;52514.19;2079904;28;22137;-76
2023/01/24 03:00:40;;;;;;;15.88;10.73;;;;;;;-146.25;86.59;52495.94;2077149;28;20930;-76
2023/01/24 03:01:44;;;;;;;15.73;10.43;;;;;;;-146.25;86.62;52481.75;2079846;28;20161;-76
2023/01/24 03:02:48;;;;;;;16.05;11.00;;;;;;;-146.25;86.55;52493.91;2088520;28;20038;-76
2023/01/24 03:03:54;;;;;;;13.93;10.40;;;;;;;-146.25;85.90;52516.22;2079751;28;21039;-76
2023/01/24 03:04:58;;;;;;;14.02;9.60;;;;;;;-146.25;85.84;52502.03;2072375;28;20093;-76
2023/01/24 03:06:00;;;;;;;13.38;10.05;;;;;;;-146.25;86.01;52546.63;2072280;28;20813;-75
2023/01/24 03:07:10;;;;;;;15.38;10.07;;;;;;;-146.25;85.85;52455.38;2080240;28;20038;-75
2023/01/24 03:08:17;;;;;;;13.43;9.50;;;;;;;-146.25;86.15;52469.56;2072041;28;21034;-76
2023/01/24 03:09:18;;;;;;;14.35;9.50;;;;;;;-146.25;85.82;52502.03;2072524;28;20042;-76
2023/01/24 03:10:25;;;;;;;13.18;9.48;;;;;;;-146.25;86.37;52532.44;2071924;28;20054;-76
2023/01/24 03:11:28;;;;;;;10.60;7.53;;;;;;;-146.25;85.33;52542.56;2071798;28;20124;-75
2023/01/24 03:35:33;;;;;;;;;;;;;;;-146.25;83.81;52479.72;2086315;28;20048;-75
2023/01/24 03:36:35;;;;;;;8.65;6.30;;;;;;;-146.25;83.42;52483.78;2080296;28;20806;-77
2023/01/24 03:40:21;;;;;;;11.02;7.60;;;;;;;-146.25;83.55;52469.56;2079914;28;21078;-75
2023/01/24 03:41:23;;;;;;;9.68;6.60;;;;;;;-146.25;83.18;52518.25;2073908;28;21000;-74
2023/01/24 03:42:28;;;;;;;8.60;6.53;;;;;;;-146.25;83.21;52518.25;2072023;28;20128;-77
2023/01/24 03:43:30;;;;;;;9.60;6.78;;;;;;;-146.25;83.52;52520.28;2071816;28;20034;-75
2023/01/24 03:44:31;;;;;;;9.60;6.93;;;;;;;-146.25;82.88;52481.75;2063172;28;30047;-77
2023/01/24 03:45:37;;;;;;;11.20;7.63;;;;;;;-146.25;83.46;52532.44;2071911;28;20073;-75
2023/01/24 03:46:40;;;;;;;10.45;7.20;;;;;;;-146.25;83.26;52483.78;2079945;28;20045;-75
2023/01/24 03:48:04;;;;;;;9.75;6.78;;;;;;;-146.25;82.75;52469.56;2080006;28;20250;-76
2023/01/24 03:49:08;;;;;;;9.98;7.00;;;;;;;-146.25;82.79;52495.94;2071761;28;20109;-75
2023/01/24 03:52:55;;;;;;;9.85;6.70;;;;;;;-146.25;82.31;52489.84;2071642;28;20108;-75
2023/01/24 03:53:57;;;;;;;9.68;6.80;;;;;;;-146.25;82.24;52502.03;2074307;28;20248;-74
2023/01/24 03:55:07;;;;;;;9.30;6.20;;;;;;;-146.25;81.40;52516.22;2071392;28;20046;-76
2023/01/24 03:56:09;;;;;;;10.13;7.05;;;;;;;-146.25;81.45;52497.97;2072719;28;20750;-76
2023/01/24 03:57:17;;;;;;;8.00;6.38;;;;;;;-146.25;81.22;52465.53;2072711;28;20137;-74
2023/01/24 03:58:22;;;;;;;13.05;6.78;;;;;;;-146.25;81.34;52495.94;2063178;28;20054;-74
2023/01/24 03:59:24;;;;;;;10.35;7.28;;;;;;;-146.25;81.64;52485.81;2063651;28;20054;-74
2023/01/24 04:00:26;;;;;;;9.73;7.07;;;;;;;-146.25;81.81;52481.75;2079386;28;20127;-77
2023/01/24 04:01:32;;;;;;;8.90;6.95;;;;;;;-146.25;81.99;52475.66;2080506;28;20926;-76
2023/01/24 04:02:40;;;;;;;8.35;6.55;;;;;;;-146.25;81.81;52528.38;2079068;28;20034;-76
2023/01/24 04:03:41;;;;;;;10.32;7.28;;;;;;;-146.25;82.14;52489.84;2079717;28;20045;-76
2023/01/24 04:06:05;;;;;;;8.52;6.25;;;;;;;-146.25;81.96;52520.28;2065902;28;20177;-77
2023/01/24 04:07:07;;;;;;;9.80;7.35;;;;;;;-146.25;81.86;52497.97;2066458;28;20440;-75
2023/01/24 04:08:26;;;;;;;8.45;6.90;;;;;;;-146.25;82.12;52471.59;2073856;28;20962;-76
2023/01/24 04:09:27;;;;;;;7.20;5.20;;;;;;;-146.25;80.93;52495.94;2079602;28;20046;-75
2023/01/24 04:10:30;;;;;;;9.55;6.35;;;;;;;-146.25;80.74;52493.91;2087420;28;20069;-77
2023/01/24 04:11:32;;;;;;;7.85;6.15;;;;;;;-146.25;80.71;52491.88;2087823;28;20076;-77
2023/01/24 04:12:43;;;;;;;7.65;5.82;;;;;;;-146.25;81.06;52506.06;2079314;28;20179;-76
2023/01/24 04:13:45;;;;;;;8.60;6.38;;;;;;;-146.25;81.45;52500.00;2072109;28;20497;-76
2023/01/24 04:14:47;;;;;;;9.70;5.93;;;;;;;-146.25;81.74;52504.03;2079663;28;20046;-76
2023/01/24 04:15:49;;;;;;;8.02;6.35;;;;;;;-146.25;81.92;52471.59;2079429;28;20046;-77
2023/01/24 04:17:09;;;;;;;8.10;6.35;;;;;;;-146.25;81.18;52526.34;2082168;28;20052;-76
2023/01/24 04:18:16;;;;;;;7.78;5.57;;;;;;;-146.25;81.78;52534.47;2079584;28;20050;-75
2023/01/24 04:19:18;;;;;;;9.07;6.13;;;;;;;-146.25;81.16;52497.97;2063360;28;20185;-76
2023/01/24 04:20:20;;;;;;;7.57;6.05;;;;;;;-146.25;81.37;52481.75;2063196;28;20042;-75
2023/01/24 04:21:22;;;;;;;9.00;6.57;;;;;;;-146.25;81.50;52461.47;2079536;28;20068;-76
2023/01/24 04:22:24;;;;;;;8.73;6.50;;;;;;;-146.25;81.31;52469.56;2079256;28;20030;-76
2023/01/24 04:23:29;;;;;;;10.18;7.00;;;;;;;-146.25;81.55;52471.59;2071588;28;20300;-76
2023/01/24 04:24:30;;;;;;;8.70;6.57;;;;;;;-146.25;81.16;52518.25;2079290;28;24647;-76
2023/01/24 04:25:34;;;;;;;8.85;6.93;;;;;;;-146.25;81.43;52473.63;2087582;28;20927;-76
2023/01/24 04:26:36;;;;;;;8.65;6.88;;;;;;;-146.25;81.75;52469.56;2079753;28;20093;-76
2023/01/24 04:27:40;;;;;;;8.88;6.82;;;;;;;-146.25;81.73;52504.03;2080095;28;20045;-75
2023/01/24 04:28:50;;;;;;;10.48;7.15;;;;;;;-146.25;81.98;52493.91;2079590;28;20045;-76
2023/01/24 04:29:51;;;;;;;10.55;7.15;;;;;;;-146.25;82.12;52491.88;2080424;28;20050;-76
2023/01/24 04:31:01;;;;;;;10.30;7.35;;;;;;;-146.25;82.64;52465.53;2079067;28;23970;-76
2023/01/24 04:32:27;;;;;;;12.80;8.18;;;;;;;-146.25;82.27;52500.00;2068577;28;20882;-76
2023/01/24 04:33:35;;;;;;;10.50;7.63;;;;;;;-146.25;82.44;52526.34;2063408;28;20402;-76
2023/01/24 04:34:36;;;;;;;10.60;7.80;;;;;;;-146.25;82.36;52491.88;2065090;28;26125;-76
2023/01/24 04:35:41;;;;;;;12.40;8.30;;;;;;;-146.25;82.57;52497.97;2079572;28;20236;-76
2023/01/24 04:36:43;;;;;;;10.02;7.45;;;;;;;-146.25;82.83;52506.06;2071382;28;20047;-76
2023/01/24 04:37:46;;;;;;;11.38;8.30;;;;;;;-146.25;82.69;52502.03;2079247;28;20057;-76
2023/01/24 04:38:51;;;;;;;10.73;8.18;;;;;;;-146.25;81.95;52485.81;2071639;28;21097;-76
2023/01/24 04:40:01;;;;;;;8.45;6.15;;;;;;;-146.25;81.76;52487.81;2064465;28;20812;-75
2023/01/24 04:41:05;;;;;;;9.65;6.60;;;;;;;-146.25;81.44;52518.25;2064150;28;20058;-77
2023/01/24 04:42:13;;;;;;;8.68;6.75;;;;;;;-146.25;81.03;52477.69;2064106;28;20063;-77
2023/01/24 04:43:15;;;;;;;8.95;6.90;;;;;;;-146.25;81.52;52540.53;2071052;28;20043;-75
2023/01/24 04:44:21;;;;;;;9.00;7.00;;;;;;;-146.25;81.46;52473.63;2063803;28;20916;-75
2023/01/24 04:45:24;;;;;;;9.63;6.85;;;;;;;-146.25;81.39;52463.50;2071227;28;20169;-75
2023/01/24 04:46:28;;;;;;;9.65;7.55;;;;;;;-146.25;81.90;52493.91;2071275;28;20057;-74
2023/01/24 04:47:31;;;;;;;9.50;7.45;;;;;;;-146.25;81.64;52489.84;2071526;28;20097;-75
2023/01/24 04:48:33;;;;;;;10.15;6.90;;;;;;;-146.25;82.04;52530.41;2070911;28;20606;-75
2023/01/24 04:49:35;;;;;;;10.07;7.45;;;;;;;-146.25;81.45;52463.50;2063127;28;20042;-75
2023/01/24 04:50:37;;;;;;;10.43;7.75;;;;;;;-146.25;81.63;52495.94;2071309;28;21021;-74
2023/01/24 04:51:42;;;;;;;10.27;7.93;;;;;;;-146.25;82.08;52522.28;2071073;28;20121;-75
2023/01/24 04:52:50;;;;;;;10.52;7.32;;;;;;;-146.25;81.94;52510.13;2064735;28;21114;-75
2023/01/24 04:53:51;;;;;;;10.80;8.30;;;;;;;-146.25;82.01;52481.75;2071263;28;20050;-74
2023/01/24 04:54:57;;;;;;;11.23;8.05;;;;;;;-146.25;81.44;52487.81;2071789;28;20054;-75
2023/01/24 04:56:01;;;;;;;11.00;7.47;;;;;;;-146.25;81.78;52508.09;2070976;28;20055;-75
2023/01/24 04:57:07;;;;;;;10.63;7.78;;;;;;;-146.25;82.00;52506.06;2063935;28;20161;-74
2023/01/24 04:58:11;;;;;;;10.77;7.97;;;;;;;-146.25;81.86;52479.72;2063709;28;20035;-75
2023/01/24 04:59:13;;;;;;;8.90;7.00;;;;;;;-146.25;81.57;52495.94;2071428;28;20046;-76
2023/01/24 05:00:20;;;;;;;9.77;7.43;;;;;;;-146.25;81.20;52489.84;2079388;28;20041;-75
2023/01/24 05:01:21;;;;;;;9.45;7.20;;;;;;;-146.25;81.29;52479.72;2087568;28;20033;-75
2023/01/24 05:02:30;;;;;;;10.48;6.93;;;;;;;-146.25;81.03;52481.75;2078618;28;20042;-74
2023/01/24 05:03:32;;;;;;;10.35;7.40;;;;;;;-146.25;81.00;52526.34;2079425;28;20034;-75
2023/01/24 05:04:34;;;;;;;9.48;6.93;;;;;;;-146.25;80.59;52481.75;2079218;28;20888;-75
2023/01/24 05:05:36;;;;;;;9.40;7.53;;;;;;;-146.25;81.10;52495.94;2079428;28;20077;-74
2023/01/24 05:06:38;;;;;;;11.15;7.70;;;;;;;-146.25;81.08;52477.69;2070881;28;20891;-74
2023/01/24 05:07:41;;;;;;;9.45;7.57;;;;;;;-146.25;80.95;52497.97;2072374;28;20990;-74
2023/01/24 05:08:48;;;;;;;9.85;7.40;;;;;;;-146.25;80.66;52495.94;2071153;28;20125;-75
2023/01/24 05:09:51;;;;;;;10.73;7.82;;;;;;;-146.25;80.88;52493.91;2064762;28;20031;-77
2023/01/24 05:10:53;;;;;;;10.70;7.93;;;;;;;-146.25;81.06;52526.34;2071541;28;20042;-77
2023/01/24 05:11:55;;;;;;;10.15;8.48;;;;;;;-146.25;80.95;52506.06;2071126;28;20168;-76
2023/01/24 05:12:58;;;;;;;10.95;8.35;;;;;;;-146.25;80.88;52497.97;2079074;28;20042;-76
2023/01/24 05:14:02;;;;;;;10.18;7.55;;;;;;;-146.25;81.15;52477.69;2079645;28;20962;-77
2023/01/24 05:15:04;;;;;;;10.48;8.10;;;;;;;-146.25;80.79;52510.13;2079579;28;20045;-76
2023/01/24 05:16:06;;;;;;;12.00;8.20;;;;;;;-146.25;81.04;52516.22;2071357;28;20182;-76
2023/01/24 05:17:08;;;;;;;11.85;8.90;;;;;;;-146.25;81.34;52491.88;2070793;28;24081;-75
2023/01/24 05:18:10;;;;;;;10.85;7.88;;;;;;;-146.25;80.80;52495.94;2079352;28;20168;-76
2023/01/24 05:19:11;;;;;;;12.18;8.77;;;;;;;-146.25;81.39;52497.97;2079323;28;20874;-76
2023/01/24 05:20:13;;;;;;;10.82;8.60;;;;;;;-146.25;81.08;52514.19;2078935;28;26353;-76
2023/01/24 05:21:18;;;;;;;12.88;9.15;;;;;;;-146.25;81.03;52473.63;2079870;28;20085;-76
2023/01/24 05:22:20;;;;;;;11.23;8.70;;;;;;;-146.25;81.11;52514.19;2087843;28;20042;-76
2023/01/24 05:23:22;;;;;;;11.13;8.30;;;;;;;-146.25;80.94;52445.25;2072448;28;20889;-76
2023/01/24 05:24:24;;;;;;;11.20;8.65;;;;;;;-146.25;80.99;52506.06;2072961;28;20046;-75
2023/01/24 05:25:26;;;;;;;13.18;9.27;;;;;;;-146.25;80.84;52491.88;2088845;28;28429;-76
2023/01/24 05:26:28;;;;;;;12.30;9.43;;;;;;;-146.25;81.25;52481.75;2072284;28;20042;-76
2023/01/24 05:27:32;;;;;;;12.57;9.40;;;;;;;-146.25;81.16;52479.72;2064075;28;20050;-76
2023/01/24 05:28:37;;;;;;;12.35;9.30;;;;;;;-146.25;81.49;52457.41;2073594;28;20096;-76
2023/01/24 05:29:38;;;;;;;11.82;9.35;;;;;;;-146.25;81.29;52481.75;2080612;28;20038;-76
2023/01/24 05:30:41;;;;;;;12.15;8.93;;;;;;;-146.25;81.48;52502.03;2080991;28;20149;-76
2023/01/24 05:31:58;;;;;;;12.10;7.82;;;;;;;-146.25;80.99;52471.59;2072388;28;20042;-76
2023/01/24 05:33:00;;;;;;;10.98;8.10;;;;;;;-146.25;81.10;52479.72;2074579;28;20876;-76
2023/01/24 05:34:04;;;;;;;12.63;9.23;;;;;;;-146.25;80.86;52475.66;2088847;28;20037;-76